Airports

 

 

Airport Name Latest METAR Visual Conditions
Atlantic City Int. (ACY) KACY 190454Z 21003KT 10SM CLR 09/06 A2989 RMK AO2 SLP122 T00940061 401890056 VFR
Baltimore International Airport (BWI) KBWI 190454Z 00000KT 10SM FEW110 BKN130 11/04 A2988 RMK AO2 SLP118 T01060039 402000044 VFR
Washington National Airport (DCA) KDCA 190452Z 19006KT 10SM FEW100 SCT120 BKN250 13/09 A2991 RMK AO2 SLP127 T01280089 402000083 VFR
Dulles International Airport (IAD) KIAD 190452Z 18004KT 10SM BKN090 OVC120 11/07 A2990 RMK AO2 SLP122 T01060067 401780056 VFR
Norfolk International Airport (ORF) KORF 190451Z 10003KT 10SM CLR 13/07 A2988 RMK AO2 SLP118 T01330072 402000122 VFR
Raleigh International Airport (RDU) KRDU 190451Z 00000KT 10SM FEW090 10/07 A2987 RMK AO2 SLP111 T01000072 402170089 VFR
Richmond International Airport (RIC) KRIC 190454Z 04003KT 10SM BKN110 11/07 A2990 RMK AO2 SLP128 T01110072 402060072 VFR
Roanoke Regional Airport (ROA) KROA 190454Z 00000KT 10SM OVC080 13/04 A2990 RMK AO2 SLP121 T01330039 401940050 VFR